Time;durP1;ratioP1;P1;durP2;ratioP2;P2;SDS_P1;SDS_P2;PMS_P1;PMS_P2;Temp;Humidity;BMP_temperature;BMP_pressure;BME280_temperature;BME280_humidity;BME280_pressure;Samples;Min_cycle;Max_cycle;Signal;HPM_P1;HPM_P2
2021/10/10 00:01:38;;;;;;;8.35;4.40;;;18.00;55.40;;;;;;5116223;28;20022;-58
2021/10/10 00:04:03;;;;;;;8.63;4.28;;;18.00;55.40;;;;;;5115889;28;20027;-56
2021/10/10 00:06:29;;;;;;;7.97;4.25;;;18.00;55.40;;;;;;5115871;28;20031;-56
2021/10/10 00:08:55;;;;;;;8.23;4.97;;;18.00;55.40;;;;;;5116101;28;20114;-57
2021/10/10 00:11:20;;;;;;;7.13;4.05;;;18.00;55.40;;;;;;5115947;28;20463;-56
2021/10/10 00:13:46;;;;;;;8.02;4.63;;;18.00;55.50;;;;;;5115626;28;20039;-56
2021/10/10 00:16:11;;;;;;;8.10;4.60;;;18.00;55.40;;;;;;5115673;28;20084;-58
2021/10/10 00:18:37;;;;;;;8.18;3.92;;;18.00;55.40;;;;;;5115679;28;20028;-59
2021/10/10 00:21:03;;;;;;;7.80;4.50;;;18.00;55.40;;;;;;5115442;28;20024;-58
2021/10/10 00:23:29;;;;;;;7.85;4.82;;;18.00;55.40;;;;;;5115539;28;20024;-57
2021/10/10 00:25:54;;;;;;;7.30;4.10;;;18.00;55.40;;;;;;5115533;28;20065;-60
2021/10/10 00:28:20;;;;;;;8.45;4.50;;;18.00;55.30;;;;;;5115721;28;20031;-59
2021/10/10 00:30:45;;;;;;;8.73;4.78;;;18.00;55.30;;;;;;5115427;28;20467;-58
2021/10/10 00:33:11;;;;;;;9.20;4.90;;;18.00;55.20;;;;;;5115332;28;20046;-59
2021/10/10 00:35:36;;;;;;;7.75;4.60;;;18.00;55.30;;;;;;5115304;28;20027;-59
2021/10/10 00:38:02;;;;;;;7.40;4.72;;;18.00;55.20;;;;;;5114651;28;20051;-58
2021/10/10 00:40:28;;;;;;;9.20;4.70;;;18.00;55.20;;;;;;5114729;28;20047;-59
2021/10/10 00:42:54;;;;;;;7.10;3.97;;;18.00;55.20;;;;;;5115241;28;20383;-59
2021/10/10 00:45:19;;;;;;;10.00;5.00;;;18.00;55.20;;;;;;5115411;28;20023;-58
2021/10/10 00:47:45;;;;;;;9.50;4.65;;;18.00;55.10;;;;;;5115146;28;20019;-59
2021/10/10 00:50:11;;;;;;;8.65;4.68;;;18.00;55.20;;;;;;5115276;28;20020;-59
2021/10/10 00:52:41;;;;;;;9.70;4.65;;;18.00;55.00;;;;;;5115119;28;20032;-59
2021/10/10 00:55:07;;;;;;;7.43;4.15;;;18.00;55.00;;;;;;5115008;28;20496;-59
2021/10/10 00:57:35;;;;;;;9.35;4.03;;;18.00;55.10;;;;;;5114766;28;20026;-58
2021/10/10 01:00:05;;;;;;;7.72;4.40;;;18.00;55.10;;;;;;5114833;28;20024;-58
2021/10/10 01:02:31;;;;;;;7.13;4.20;;;18.00;55.10;;;;;;5114626;28;20028;-57
2021/10/10 01:04:57;;;;;;;8.18;4.50;;;18.00;55.10;;;;;;5114879;28;20028;-56
2021/10/10 01:07:25;;;;;;;10.50;4.68;;;18.00;55.10;;;;;;5114593;28;20429;-58
2021/10/10 01:09:51;;;;;;;8.60;4.70;;;17.90;55.10;;;;;;5114765;28;20039;-58
2021/10/10 01:12:17;;;;;;;9.38;4.85;;;18.00;54.90;;;;;;5114425;28;20023;-58
2021/10/10 01:14:43;;;;;;;10.07;4.80;;;17.90;54.90;;;;;;5114569;28;20027;-59
2021/10/10 01:17:08;;;;;;;7.45;4.40;;;18.00;54.90;;;;;;5114398;28;20428;-57
2021/10/10 01:19:35;;;;;;;7.57;4.25;;;17.90;54.90;;;;;;5114365;28;20039;-57
2021/10/10 01:22:03;;;;;;;10.63;4.65;;;17.90;54.90;;;;;;5096244;28;20375;-57
2021/10/10 01:24:29;;;;;;;9.00;4.18;;;18.00;54.90;;;;;;5114366;28;20016;-58
2021/10/10 01:26:55;;;;;;;8.35;4.90;;;17.90;54.80;;;;;;5114563;28;20064;-58
2021/10/10 01:29:20;;;;;;;8.75;4.50;;;17.90;54.90;;;;;;5114575;28;20016;-58
2021/10/10 01:31:46;;;;;;;8.18;4.70;;;17.90;54.80;;;;;;5114605;28;20024;-58
2021/10/10 01:34:12;;;;;;;9.32;4.78;;;17.90;54.90;;;;;;5096315;28;20032;-59
2021/10/10 01:36:38;;;;;;;10.43;4.68;;;17.90;54.80;;;;;;5114120;28;20027;-58
2021/10/10 01:39:05;;;;;;;10.73;5.13;;;17.90;54.80;;;;;;5113972;28;20051;-58
2021/10/10 01:41:30;;;;;;;8.70;4.90;;;17.90;54.80;;;;;;5114264;28;20070;-58
2021/10/10 01:43:56;;;;;;;9.75;4.95;;;17.90;54.80;;;;;;5114078;28;20081;-57
2021/10/10 01:46:21;;;;;;;8.82;4.65;;;17.90;54.80;;;;;;5113983;28;20027;-59
2021/10/10 01:48:47;;;;;;;8.68;5.03;;;17.90;54.80;;;;;;5113931;28;20471;-57
2021/10/10 01:51:13;;;;;;;10.07;4.50;;;17.90;54.80;;;;;;5113701;28;20096;-58
2021/10/10 01:53:40;;;;;;;8.48;5.10;;;17.90;54.80;;;;;;5113925;28;20031;-57
2021/10/10 01:56:06;;;;;;;8.75;4.38;;;17.90;54.70;;;;;;5113795;28;20432;-58
2021/10/10 01:58:31;;;;;;;7.55;4.45;;;17.90;54.70;;;;;;5113794;28;20020;-56
2021/10/10 02:00:58;;;;;;;8.45;4.72;;;17.90;54.70;;;;;;5113694;28;20379;-60
2021/10/10 02:03:23;;;;;;;8.63;4.82;;;17.90;54.70;;;;;;5113737;28;20518;-60
2021/10/10 02:05:50;;;;;;;7.57;4.38;;;17.90;54.70;;;;;;5113913;28;20111;-58
2021/10/10 02:08:16;;;;;;;9.50;4.93;;;17.90;54.80;;;;;;5113644;28;20046;-58
2021/10/10 02:10:42;;;;;;;8.15;4.30;;;17.90;54.70;;;;;;5113895;28;20038;-58
2021/10/10 02:13:08;;;;;;;7.45;4.40;;;17.90;54.70;;;;;;5113460;28;20031;-57
2021/10/10 02:15:33;;;;;;;8.40;4.50;;;17.90;54.60;;;;;;5113681;28;20035;-59
2021/10/10 02:17:59;;;;;;;9.00;4.97;;;17.80;54.80;;;;;;5095333;28;20020;-57
2021/10/10 02:20:24;;;;;;;8.00;4.40;;;17.80;54.70;;;;;;5113952;28;20020;-58
2021/10/10 02:22:50;;;;;;;7.97;4.50;;;17.80;54.90;;;;;;5113486;28;20125;-58
2021/10/10 02:25:15;;;;;;;8.02;4.57;;;17.80;54.90;;;;;;5113362;28;20032;-59
2021/10/10 02:27:41;;;;;;;9.43;5.03;;;17.80;55.00;;;;;;5113332;28;20096;-58
2021/10/10 02:30:07;;;;;;;8.57;4.45;;;17.80;54.90;;;;;;5113298;28;20085;-58
2021/10/10 02:32:32;;;;;;;8.43;4.88;;;17.80;54.70;;;;;;5113530;28;20028;-58
2021/10/10 02:34:58;;;;;;;9.18;4.88;;;17.80;54.60;;;;;;5113636;28;20031;-58
2021/10/10 02:37:24;;;;;;;8.38;4.70;;;17.80;54.60;;;;;;5113264;28;20420;-58
2021/10/10 02:39:51;;;;;;;9.40;5.10;;;17.80;54.60;;;;;;5113580;28;20083;-58
2021/10/10 02:42:17;;;;;;;10.05;5.10;;;17.80;54.60;;;;;;5113561;28;20032;-58
2021/10/10 02:44:43;;;;;;;9.65;4.78;;;17.80;54.50;;;;;;5094971;28;20032;-59
2021/10/10 02:47:08;;;;;;;7.57;4.03;;;17.80;54.50;;;;;;5113509;28;20023;-59
2021/10/10 02:49:34;;;;;;;8.18;4.75;;;17.80;54.60;;;;;;5113371;28;20093;-57
2021/10/10 02:51:59;;;;;;;9.25;5.13;;;17.80;54.50;;;;;;5113175;28;20030;-58
2021/10/10 02:54:25;;;;;;;9.82;4.70;;;17.80;54.50;;;;;;5113360;28;20170;-57
2021/10/10 02:56:51;;;;;;;8.40;4.45;;;17.80;54.60;;;;;;5113054;28;20093;-58
2021/10/10 02:59:16;;;;;;;8.15;4.85;;;17.80;54.50;;;;;;5113070;28;20088;-58
2021/10/10 03:01:42;;;;;;;7.32;4.38;;;17.80;54.50;;;;;;5113745;28;20052;-58
2021/10/10 03:04:07;;;;;;;8.25;4.72;;;17.80;54.50;;;;;;5117252;28;20072;-58
2021/10/10 03:06:33;;;;;;;9.10;4.80;;;17.80;54.50;;;;;;5117309;28;20024;-58
2021/10/10 03:08:58;;;;;;;6.95;4.43;;;17.70;54.50;;;;;;5098936;28;20478;-59
2021/10/10 03:11:24;;;;;;;8.05;5.00;;;17.70;54.50;;;;;;5117006;28;20016;-60
2021/10/10 03:13:50;;;;;;;8.73;4.63;;;17.80;54.50;;;;;;5116869;28;20062;-58
2021/10/10 03:16:15;;;;;;;10.07;5.30;;;17.70;54.40;;;;;;5116890;28;20029;-59
2021/10/10 03:18:41;;;;;;;8.65;4.22;;;17.70;54.40;;;;;;5116865;28;20027;-58
2021/10/10 03:21:06;;;;;;;8.45;4.85;;;17.80;54.40;;;;;;5098725;28;20459;-58
2021/10/10 03:23:32;;;;;;;8.02;4.47;;;17.70;54.40;;;;;;5116743;28;20023;-57
2021/10/10 03:25:57;;;;;;;9.02;5.05;;;17.70;54.40;;;;;;5116723;28;20027;-57
2021/10/10 03:28:23;;;;;;;7.72;4.43;;;17.80;54.40;;;;;;5116634;28;20019;-57
2021/10/10 03:30:49;;;;;;;8.45;4.38;;;17.70;54.40;;;;;;5116954;28;20106;-57
2021/10/10 03:33:14;;;;;;;7.88;4.18;;;17.70;54.30;;;;;;5116708;28;20063;-56
2021/10/10 03:35:40;;;;;;;9.32;5.10;;;17.70;54.40;;;;;;5116763;28;20027;-56
2021/10/10 03:38:05;;;;;;;7.10;4.20;;;17.70;54.30;;;;;;5116497;28;20024;-59
2021/10/10 03:40:31;;;;;;;8.00;4.93;;;17.70;54.30;;;;;;5116478;28;20047;-57
2021/10/10 03:42:57;;;;;;;7.78;4.28;;;17.70;54.30;;;;;;5116343;28;20024;-55
2021/10/10 03:45:23;;;;;;;8.50;4.75;;;17.70;54.30;;;;;;5116367;28;20016;-56
2021/10/10 03:47:49;;;;;;;7.38;4.13;;;17.70;54.30;;;;;;5116570;28;20047;-58
2021/10/10 03:50:14;;;;;;;8.50;4.72;;;17.70;54.30;;;;;;5116394;28;20016;-57
2021/10/10 03:52:41;;;;;;;7.53;4.10;;;17.70;54.20;;;;;;5116194;28;20463;-60
2021/10/10 03:57:53;;;;;;;8.82;4.75;;;17.70;54.20;;;;;;5116398;28;20088;-57
2021/10/10 04:00:19;;;;;;;7.95;4.55;;;17.60;54.30;;;;;;5115998;28;20027;-58
2021/10/10 04:02:45;;;;;;;9.23;5.28;;;17.70;54.30;;;;;;5116052;28;20027;-56
2021/10/10 04:05:23;;;;;;;8.18;4.63;;;17.70;54.20;;;;;;5097683;28;20028;-59
2021/10/10 04:07:50;;;;;;;9.25;4.63;;;17.70;54.20;;;;;;5115967;28;20040;-59
2021/10/10 04:10:16;;;;;;;8.85;4.97;;;17.70;54.20;;;;;;5097615;28;20024;-58
2021/10/10 04:12:42;;;;;;;8.60;4.60;;;17.60;54.20;;;;;;5115736;28;20043;-60
2021/10/10 04:15:08;;;;;;;8.02;4.88;;;17.70;54.20;;;;;;5115876;28;20031;-58
2021/10/10 04:17:34;;;;;;;8.23;4.60;;;17.60;54.20;;;;;;5097668;28;20031;-59
2021/10/10 04:19:59;;;;;;;7.72;4.55;;;17.70;54.20;;;;;;5115685;28;20028;-57
2021/10/10 04:22:25;;;;;;;9.25;4.78;;;17.60;54.10;;;;;;5115820;28;20019;-56
2021/10/10 04:24:51;;;;;;;8.00;4.43;;;17.60;54.10;;;;;;5115505;28;20034;-58
2021/10/10 04:27:16;;;;;;;7.75;4.30;;;17.70;54.10;;;;;;5115545;28;20027;-57
2021/10/10 04:29:42;;;;;;;9.90;5.00;;;17.60;54.10;;;;;;5115711;28;20114;-58
2021/10/10 04:32:07;;;;;;;8.25;4.68;;;17.60;54.10;;;;;;5115414;28;20027;-56
2021/10/10 04:34:33;;;;;;;9.43;4.85;;;17.60;54.10;;;;;;5115518;28;20036;-56
2021/10/10 04:36:58;;;;;;;9.27;4.55;;;17.60;54.10;;;;;;5097210;28;20460;-56
2021/10/10 04:39:24;;;;;;;8.02;4.55;;;17.60;54.10;;;;;;5115097;28;20510;-58
2021/10/10 04:41:50;;;;;;;9.93;5.32;;;17.60;54.10;;;;;;5115228;28;20027;-58
2021/10/10 04:44:15;;;;;;;8.40;4.30;;;17.60;54.10;;;;;;5115187;28;20027;-58
2021/10/10 04:46:40;;;;;;;7.63;4.15;;;17.60;54.00;;;;;;5115186;28;20030;-57
2021/10/10 04:49:06;;;;;;;9.52;4.53;;;17.60;54.10;;;;;;5114973;28;20027;-57
2021/10/10 04:51:32;;;;;;;7.93;4.43;;;17.60;54.10;;;;;;5115054;28;20027;-56
2021/10/10 04:53:57;;;;;;;9.52;4.57;;;17.50;54.10;;;;;;5114809;28;20035;-57
2021/10/10 04:56:23;;;;;;;8.70;5.05;;;17.60;54.10;;;;;;5115133;28;20098;-57
2021/10/10 04:58:48;;;;;;;7.18;4.30;;;17.50;54.10;;;;;;5096623;28;20460;-56
2021/10/10 05:01:14;;;;;;;9.30;4.80;;;17.50;54.10;;;;;;5115114;28;20020;-57
2021/10/10 05:03:40;;;;;;;7.88;4.70;;;17.60;54.10;;;;;;5115095;28;20032;-56
2021/10/10 05:06:05;;;;;;;9.18;4.70;;;17.50;54.10;;;;;;5114726;28;20100;-58
2021/10/10 05:08:31;;;;;;;9.45;4.72;;;17.50;54.00;;;;;;5114901;28;20030;-60
2021/10/10 05:10:56;;;;;;;7.30;4.35;;;17.50;54.00;;;;;;5114945;28;20045;-60
2021/10/10 05:13:22;;;;;;;9.27;4.90;;;17.50;54.00;;;;;;5114561;28;20071;-56
2021/10/10 05:15:47;;;;;;;7.20;3.97;;;17.50;54.00;;;;;;5114528;28;20030;-58
2021/10/10 05:18:13;;;;;;;8.30;4.85;;;17.50;54.00;;;;;;5114567;28;20104;-55
2021/10/10 05:20:38;;;;;;;7.70;4.28;;;17.50;54.00;;;;;;5114505;28;20028;-57
2021/10/10 05:23:04;;;;;;;10.10;4.63;;;17.50;53.90;;;;;;5114337;28;20039;-58
2021/10/10 05:25:30;;;;;;;8.02;4.32;;;17.50;53.90;;;;;;5113805;28;20024;-58
2021/10/10 05:27:55;;;;;;;8.18;4.53;;;17.50;53.90;;;;;;5114308;28;20434;-58
2021/10/10 05:30:21;;;;;;;7.80;4.30;;;17.50;53.90;;;;;;5114403;28;20110;-58
2021/10/10 05:32:47;;;;;;;7.47;4.32;;;17.50;53.90;;;;;;5114156;28;20027;-54
2021/10/10 05:35:12;;;;;;;7.63;4.65;;;17.50;53.80;;;;;;5114136;28;20031;-58
2021/10/10 05:37:38;;;;;;;8.07;4.63;;;17.50;53.80;;;;;;5114131;28;20020;-56
2021/10/10 05:40:04;;;;;;;10.10;5.28;;;17.50;53.80;;;;;;5095836;28;20505;-58
2021/10/10 05:42:30;;;;;;;8.93;4.75;;;17.50;53.80;;;;;;5114080;28;20054;-56
2021/10/10 05:44:56;;;;;;;9.88;5.40;;;17.50;53.80;;;;;;5113953;28;20491;-57
2021/10/10 05:47:21;;;;;;;7.40;4.25;;;17.50;53.80;;;;;;5114243;28;20028;-58
2021/10/10 05:49:47;;;;;;;8.23;4.85;;;17.50;53.90;;;;;;5114149;28;20030;-58
2021/10/10 05:52:13;;;;;;;7.80;4.47;;;17.50;53.80;;;;;;5113915;28;20034;-58
2021/10/10 05:54:39;;;;;;;8.45;4.13;;;17.50;53.70;;;;;;5113786;28;20388;-58
2021/10/10 05:57:08;;;;;;;9.10;4.57;;;17.50;53.80;;;;;;5113860;28;20019;-58
2021/10/10 05:59:34;;;;;;;9.48;5.10;;;17.50;53.70;;;;;;5113823;28;20104;-58
2021/10/10 06:02:01;;;;;;;9.55;4.50;;;17.50;53.70;;;;;;5095531;28;20032;-55
2021/10/10 06:04:27;;;;;;;7.28;4.63;;;17.50;53.70;;;;;;5113761;28;20382;-58
2021/10/10 06:06:53;;;;;;;8.25;4.55;;;17.50;53.80;;;;;;5113641;28;20035;-57
2021/10/10 06:09:18;;;;;;;7.32;4.38;;;17.50;53.80;;;;;;5095710;28;20481;-55
2021/10/10 06:11:44;;;;;;;10.18;4.32;;;17.50;53.80;;;;;;5113872;28;20035;-59
2021/10/10 06:14:10;;;;;;;8.38;4.38;;;17.50;53.70;;;;;;5113490;28;20043;-58
2021/10/10 06:16:36;;;;;;;8.77;4.57;;;17.50;53.70;;;;;;5113556;28;20062;-58
2021/10/10 06:19:03;;;;;;;7.97;4.13;;;17.50;53.70;;;;;;5113516;28;20031;-56
2021/10/10 06:21:30;;;;;;;9.32;4.68;;;17.50;53.70;;;;;;5113685;28;20038;-55
2021/10/10 06:23:55;;;;;;;7.57;4.68;;;17.50;53.70;;;;;;5113343;28;20036;-58
2021/10/10 06:26:22;;;;;;;7.80;4.40;;;17.50;53.60;;;;;;5113509;28;20031;-57
2021/10/10 06:28:47;;;;;;;7.53;4.28;;;17.50;53.60;;;;;;5113509;28;20071;-56
2021/10/10 06:31:13;;;;;;;7.78;4.25;;;17.50;53.60;;;;;;5113368;28;20020;-59
2021/10/10 06:33:39;;;;;;;9.15;4.40;;;17.50;53.60;;;;;;5113279;28;20039;-56
2021/10/10 06:36:04;;;;;;;7.95;4.47;;;17.50;53.60;;;;;;5113281;28;20028;-59
2021/10/10 06:38:30;;;;;;;8.02;4.18;;;17.50;53.60;;;;;;5098718;28;20023;-60
2021/10/10 06:40:56;;;;;;;9.27;4.45;;;17.50;53.60;;;;;;5117547;28;20058;-58
2021/10/10 06:43:21;;;;;;;7.72;4.55;;;17.50;53.60;;;;;;5117810;28;20042;-58
2021/10/10 06:45:47;;;;;;;7.30;4.40;;;17.50;53.60;;;;;;5117475;28;20080;-59
2021/10/10 06:48:12;;;;;;;7.93;4.40;;;17.50;53.70;;;;;;5117440;28;20019;-58
2021/10/10 06:50:38;;;;;;;9.07;4.82;;;17.50;53.60;;;;;;5117598;28;20059;-57
2021/10/10 06:53:04;;;;;;;8.70;4.60;;;17.50;53.60;;;;;;5117318;28;20044;-59
2021/10/10 06:55:29;;;;;;;8.10;4.55;;;17.50;53.60;;;;;;5117314;28;20398;-58
2021/10/10 06:57:55;;;;;;;8.60;4.95;;;17.50;53.60;;;;;;5117362;28;20119;-57
2021/10/10 07:00:20;;;;;;;9.60;4.38;;;17.50;53.60;;;;;;5099164;28;20030;-58
2021/10/10 07:02:46;;;;;;;7.95;4.38;;;17.50;53.50;;;;;;5117115;28;20023;-58
2021/10/10 07:05:13;;;;;;;8.70;4.50;;;17.50;53.50;;;;;;5117083;28;20044;-57
2021/10/10 07:07:40;;;;;;;8.38;4.38;;;17.50;53.50;;;;;;5116827;28;20019;-56
2021/10/10 07:10:07;;;;;;;7.50;4.43;;;17.50;53.50;;;;;;5117246;28;20378;-59
2021/10/10 07:12:33;;;;;;;8.38;4.25;;;17.50;53.50;;;;;;5116941;28;20054;-58
2021/10/10 07:14:59;;;;;;;8.25;4.57;;;17.50;53.50;;;;;;5116994;28;20058;-59
2021/10/10 07:17:28;;;;;;;8.27;4.57;;;17.50;53.50;;;;;;5116887;28;20087;-56
2021/10/10 07:20:16;;;;;;;7.90;4.75;;;17.50;53.40;;;;;;5116842;28;20023;-56
2021/10/10 07:25:11;;;;;;;10.57;4.85;;;17.50;53.40;;;;;;5116767;28;20391;-60
2021/10/10 07:27:42;;;;;;;9.27;4.85;;;17.50;53.40;;;;;;5116790;28;20028;-58
2021/10/10 07:30:10;;;;;;;9.38;4.50;;;17.50;53.40;;;;;;5116678;28;20019;-57
2021/10/10 07:32:37;;;;;;;8.13;4.95;;;17.50;53.50;;;;;;5116696;28;20027;-58
2021/10/10 07:35:04;;;;;;;7.30;4.10;;;17.50;53.40;;;;;;5116491;28;20088;-58
2021/10/10 07:37:30;;;;;;;7.45;4.43;;;17.50;53.40;;;;;;5116640;28;20035;-58
2021/10/10 07:39:55;;;;;;;8.57;4.20;;;17.50;53.40;;;;;;5116314;28;20071;-58
2021/10/10 07:42:21;;;;;;;9.10;4.68;;;17.50;53.30;;;;;;5116435;28;20024;-58
2021/10/10 07:44:50;;;;;;;8.57;4.53;;;17.60;53.30;;;;;;5116262;28;20065;-58
2021/10/10 07:47:28;;;;;;;8.55;4.95;;;17.50;53.30;;;;;;5116039;28;20059;-57
2021/10/10 07:49:53;;;;;;;8.93;5.10;;;17.60;53.30;;;;;;5116303;28;20107;-58
2021/10/10 07:52:20;;;;;;;7.40;4.22;;;17.60;53.30;;;;;;5116177;28;20189;-56
2021/10/10 07:54:45;;;;;;;7.88;4.82;;;17.60;53.30;;;;;;5116126;28;20368;-55
2021/10/10 07:57:11;;;;;;;7.05;4.20;;;17.60;53.20;;;;;;5116105;28;20538;-56
2021/10/10 07:59:37;;;;;;;7.65;4.18;;;17.60;53.20;;;;;;5116043;28;20071;-58
2021/10/10 08:02:02;;;;;;;8.88;4.60;;;17.60;53.20;;;;;;5116019;28;20428;-57
2021/10/10 08:04:28;;;;;;;8.73;4.85;;;17.70;53.10;;;;;;5116081;28;20050;-57
2021/10/10 08:06:55;;;;;;;10.15;5.10;;;17.60;53.20;;;;;;5115995;28;20028;-57
2021/10/10 08:09:21;;;;;;;10.52;4.47;;;17.70;53.20;;;;;;5115905;28;20020;-56
2021/10/10 08:11:47;;;;;;;8.15;4.57;;;17.70;53.10;;;;;;5115743;28;20465;-58
2021/10/10 08:14:13;;;;;;;7.32;4.03;;;17.70;53.10;;;;;;5115941;28;20040;-60
2021/10/10 08:16:39;;;;;;;8.23;4.50;;;17.70;53.10;;;;;;5115911;28;20024;-56
2021/10/10 08:19:06;;;;;;;9.35;5.22;;;17.70;53.10;;;;;;5115794;28;20051;-57
2021/10/10 08:21:31;;;;;;;8.20;4.45;;;17.70;53.20;;;;;;5115908;28;20484;-56
2021/10/10 08:23:58;;;;;;;8.50;4.22;;;17.70;53.10;;;;;;5097262;28;20115;-56
2021/10/10 08:26:24;;;;;;;7.68;4.22;;;17.70;53.10;;;;;;5115649;28;20028;-57
2021/10/10 08:28:49;;;;;;;7.78;4.05;;;17.70;53.10;;;;;;5115571;28;20031;-58
2021/10/10 08:31:15;;;;;;;7.60;3.97;;;17.70;53.20;;;;;;5115501;28;20027;-59
2021/10/10 08:33:41;;;;;;;9.57;4.68;;;17.70;53.20;;;;;;5115524;28;20043;-57
2021/10/10 08:36:09;;;;;;;7.28;4.53;;;17.70;53.20;;;;;;5115256;28;20471;-55
2021/10/10 08:38:36;;;;;;;7.65;4.70;;;17.70;53.10;;;;;;5115080;28;20027;-57
2021/10/10 08:41:03;;;;;;;7.68;4.00;;;17.70;53.20;;;;;;5115307;28;20032;-59
2021/10/10 08:43:33;;;;;;;7.45;4.35;;;17.70;53.20;;;;;;5115464;28;20034;-59
2021/10/10 08:46:04;;;;;;;7.68;4.60;;;17.70;53.10;;;;;;5115367;28;20046;-58
2021/10/10 08:48:30;;;;;;;7.53;4.22;;;17.70;53.20;;;;;;5096808;28;20420;-59
2021/10/10 08:50:57;;;;;;;7.15;4.18;;;17.70;53.20;;;;;;5114938;28;20019;-58
2021/10/10 08:53:23;;;;;;;8.32;4.50;;;17.70;53.30;;;;;;5115152;28;20050;-60
2021/10/10 08:55:50;;;;;;;7.47;4.15;;;17.70;53.20;;;;;;5096586;28;20028;-59
2021/10/10 08:58:18;;;;;;;7.63;4.47;;;17.70;53.30;;;;;;5114872;28;20036;-59
2021/10/10 09:00:50;;;;;;;6.97;4.25;;;17.80;53.20;;;;;;5096102;28;20027;-59
2021/10/10 09:03:16;;;;;;;9.35;5.47;;;17.70;53.10;;;;;;5115147;28;20020;-57
2021/10/10 09:05:44;;;;;;;9.05;4.57;;;17.70;53.30;;;;;;5114737;28;20581;-57
2021/10/10 09:08:10;;;;;;;7.38;4.28;;;17.70;53.20;;;;;;5114621;28;20076;-57
2021/10/10 09:10:35;;;;;;;8.25;4.32;;;17.70;53.20;;;;;;5096413;28;20020;-59
2021/10/10 09:13:12;;;;;;;8.32;4.72;;;17.80;53.20;;;;;;5114503;28;20108;-59
2021/10/10 09:15:40;;;;;;;8.45;4.40;;;17.80;53.10;;;;;;5114441;28;20032;-57
2021/10/10 09:18:08;;;;;;;7.55;4.28;;;17.80;53.20;;;;;;5114709;28;20108;-58
2021/10/10 09:20:35;;;;;;;8.77;4.38;;;17.80;53.20;;;;;;5114400;28;20026;-59
2021/10/10 09:23:04;;;;;;;7.05;3.67;;;17.80;53.10;;;;;;5114731;28;20088;-58
2021/10/10 09:25:30;;;;;;;7.60;4.80;;;17.80;53.10;;;;;;5114536;28;20035;-59
2021/10/10 09:28:00;;;;;;;6.90;4.05;;;17.80;53.10;;;;;;5114680;28;20024;-58
2021/10/10 09:30:26;;;;;;;8.43;4.45;;;17.80;53.10;;;;;;5114305;28;20043;-57
2021/10/10 09:32:55;;;;;;;8.30;4.07;;;17.80;53.20;;;;;;5114233;28;20028;-59
2021/10/10 09:35:30;;;;;;;7.50;4.30;;;17.80;53.10;;;;;;5114093;28;20031;-60
2021/10/10 09:38:42;;;;;;;7.65;4.18;;;17.90;53.20;;;;;;5095923;28;20093;-56
2021/10/10 09:41:20;;;;;;;8.20;4.38;;;17.90;53.10;;;;;;5110832;28;20057;-57
2021/10/10 09:43:57;;;;;;;7.93;4.20;;;18.00;53.10;;;;;;5114077;28;20023;-58
2021/10/10 09:46:24;;;;;;;7.07;4.03;;;18.00;53.00;;;;;;5114182;28;20027;-57
2021/10/10 09:48:49;;;;;;;7.57;4.10;;;18.00;53.00;;;;;;5095679;28;20588;-56
2021/10/10 09:51:30;;;;;;;8.07;4.40;;;18.00;53.00;;;;;;5113911;28;20099;-57
2021/10/10 09:54:06;;;;;;;7.43;3.90;;;18.00;53.10;;;;;;5113719;28;20035;-57
2021/10/10 09:56:35;;;;;;;9.63;4.50;;;18.00;53.00;;;;;;5095832;28;20027;-58
2021/10/10 09:59:01;;;;;;;7.68;4.15;;;18.00;53.00;;;;;;5113830;28;20080;-59
2021/10/10 10:01:29;;;;;;;7.80;4.40;;;18.00;53.10;;;;;;5113748;28;20099;-58
2021/10/10 10:04:06;;;;;;;9.32;3.72;;;18.00;53.00;;;;;;5096004;28;20102;-56
2021/10/10 10:06:35;;;;;;;7.60;4.18;;;18.00;53.10;;;;;;5113689;28;20059;-59
2021/10/10 10:09:06;;;;;;;8.35;4.35;;;18.10;53.10;;;;;;5095292;28;20030;-57
2021/10/10 10:11:45;;;;;;;6.72;4.10;;;18.00;53.10;;;;;;5113477;28;20024;-56
2021/10/10 10:14:18;;;;;;;7.22;4.18;;;18.10;53.00;;;;;;5113499;28;20375;-55
2021/10/10 10:16:46;;;;;;;8.15;3.97;;;18.10;53.00;;;;;;5095228;28;20031;-60
2021/10/10 10:19:21;;;;;;;9.13;4.03;;;18.10;52.90;;;;;;5113700;28;20035;-57
2021/10/10 10:21:51;;;;;;;9.35;4.05;;;18.10;53.00;;;;;;5113626;28;20054;-59
2021/10/10 10:24:17;;;;;;;7.60;4.15;;;18.20;52.90;;;;;;5113756;28;20035;-58
2021/10/10 10:26:43;;;;;;;9.02;4.25;;;18.30;53.00;;;;;;5113657;28;20024;-57
2021/10/10 10:29:15;;;;;;;8.32;3.95;;;18.30;52.90;;;;;;5113386;28;20156;-58
2021/10/10 10:31:45;;;;;;;7.72;4.53;;;18.30;52.80;;;;;;5113417;28;20020;-57
2021/10/10 10:34:22;;;;;;;7.35;4.05;;;18.40;52.80;;;;;;5113176;28;20031;-58
2021/10/10 10:36:50;;;;;;;8.05;3.90;;;18.40;52.70;;;;;;5113342;28;20020;-57
2021/10/10 10:39:43;;;;;;;8.35;4.47;;;18.40;52.80;;;;;;5113346;28;20089;-56
2021/10/10 10:42:10;;;;;;;7.85;4.38;;;18.40;52.80;;;;;;5113542;28;20030;-57
2021/10/10 10:44:40;;;;;;;6.72;3.85;;;18.40;52.70;;;;;;5113385;28;20023;-58
2021/10/10 10:47:17;;;;;;;8.48;4.45;;;18.40;52.80;;;;;;5113325;28;20016;-60
2021/10/10 10:50:01;;;;;;;8.07;4.10;;;18.40;52.80;;;;;;5113404;28;20031;-59
2021/10/10 10:52:37;;;;;;;6.60;3.70;;;18.50;52.70;;;;;;5113192;28;20024;-58
2021/10/10 10:55:05;;;;;;;8.23;4.60;;;18.50;52.60;;;;;;5113367;28;20479;-59
2021/10/10 10:57:33;;;;;;;6.95;4.20;;;18.50;52.60;;;;;;5113326;28;20024;-59
2021/10/10 11:00:05;;;;;;;7.38;4.13;;;18.50;52.70;;;;;;5113012;28;20024;-58
2021/10/10 11:02:50;;;;;;;7.72;4.28;;;18.50;52.70;;;;;;5094802;28;20053;-58
2021/10/10 11:05:28;;;;;;;7.07;3.78;;;18.50;52.70;;;;;;5113293;28;20091;-58
2021/10/10 11:07:54;;;;;;;12.77;4.97;;;18.60;52.60;;;;;;5113001;28;20073;-58
2021/10/10 11:10:20;;;;;;;7.07;3.92;;;18.60;52.50;;;;;;5113267;28;20019;-60
2021/10/10 11:12:55;;;;;;;6.97;4.05;;;18.70;52.60;;;;;;5094703;28;20516;-59
2021/10/10 11:15:21;;;;;;;7.97;3.63;;;18.70;52.50;;;;;;5112981;28;20024;-58
2021/10/10 11:17:55;;;;;;;7.20;3.83;;;18.80;52.40;;;;;;5112968;28;20206;-58
2021/10/10 11:20:21;;;;;;;7.18;3.80;;;18.80;52.30;;;;;;5094689;28;20098;-55
2021/10/10 11:22:46;;;;;;;7.35;4.25;;;18.80;52.30;;;;;;5113591;28;20431;-57
2021/10/10 11:25:12;;;;;;;7.28;4.13;;;18.80;52.40;;;;;;5116785;28;20042;-59
2021/10/10 11:27:38;;;;;;;7.05;3.65;;;18.70;52.50;;;;;;5116745;28;20026;-57
2021/10/10 11:30:06;;;;;;;7.47;4.18;;;18.80;52.50;;;;;;5116857;28;20035;-61
2021/10/10 11:32:31;;;;;;;6.03;3.45;;;18.80;52.40;;;;;;5116554;28;20015;-58
2021/10/10 11:34:58;;;;;;;7.55;4.57;;;18.90;52.30;;;;;;5116590;28;20034;-58
2021/10/10 11:37:24;;;;;;;8.98;4.28;;;18.90;52.40;;;;;;5116438;28;20020;-59
2021/10/10 11:39:49;;;;;;;7.88;4.18;;;18.90;52.40;;;;;;5116167;28;20407;-59
2021/10/10 11:42:15;;;;;;;8.25;4.53;;;18.90;52.20;;;;;;5116471;28;20102;-57
2021/10/10 11:44:43;;;;;;;6.60;3.83;;;18.90;52.50;;;;;;5098023;28;20116;-57
2021/10/10 11:47:25;;;;;;;9.02;4.55;;;18.90;52.50;;;;;;5116462;28;20146;-57
2021/10/10 11:49:59;;;;;;;8.85;4.20;;;18.90;52.40;;;;;;5116272;28;20030;-57
2021/10/10 11:55:24;;;;;;;7.75;3.88;;;19.10;52.10;;;;;;5116073;28;20040;-59
2021/10/10 11:57:55;;;;;;;6.68;3.97;;;19.10;52.00;;;;;;5115479;28;20032;-58
2021/10/10 12:00:25;;;;;;;7.18;4.03;;;19.20;51.90;;;;;;5116295;28;20027;-59
2021/10/10 12:02:51;;;;;;;8.57;4.25;;;19.20;52.00;;;;;;5116242;28;20027;-57
2021/10/10 12:05:22;;;;;;;7.13;4.07;;;19.20;52.00;;;;;;5115912;28;20020;-59
2021/10/10 12:07:49;;;;;;;7.32;3.90;;;19.20;52.10;;;;;;5097665;28;20501;-57
2021/10/10 12:10:21;;;;;;;7.80;4.40;;;19.20;51.90;;;;;;5097708;28;20405;-57
2021/10/10 12:12:48;;;;;;;6.95;3.85;;;19.20;52.00;;;;;;5115820;28;20434;-57
2021/10/10 12:15:19;;;;;;;6.55;3.70;;;19.20;52.00;;;;;;5097342;28;20084;-58
2021/10/10 12:17:49;;;;;;;7.45;3.90;;;19.10;52.10;;;;;;5115506;28;20379;-57
2021/10/10 12:20:17;;;;;;;7.50;4.18;;;19.10;52.20;;;;;;5115630;28;20447;-58
2021/10/10 12:22:54;;;;;;;8.43;4.15;;;19.10;52.20;;;;;;5115672;28;20023;-59
2021/10/10 12:25:31;;;;;;;6.78;3.05;;;19.10;52.30;;;;;;5115639;28;20056;-60
2021/10/10 12:28:17;;;;;;;7.00;3.83;;;19.10;52.30;;;;;;5115481;28;20023;-59
2021/10/10 12:31:00;;;;;;;7.35;4.22;;;19.10;52.40;;;;;;5115403;28;20583;-58
2021/10/10 12:33:34;;;;;;;7.88;4.00;;;19.10;52.40;;;;;;5097285;28;20367;-58
2021/10/10 12:36:05;;;;;;;7.75;4.65;;;19.10;52.50;;;;;;5097177;28;20019;-57
2021/10/10 12:38:46;;;;;;;7.78;3.90;;;19.00;52.50;;;;;;5115103;28;20032;-59
2021/10/10 12:41:20;;;;;;;7.90;4.63;;;19.00;52.60;;;;;;5115348;28;20031;-58
2021/10/10 12:43:51;;;;;;;6.55;3.75;;;19.00;52.70;;;;;;5096991;28;20084;-59
2021/10/10 12:46:19;;;;;;;7.20;4.20;;;19.00;52.70;;;;;;5115257;28;20081;-58
2021/10/10 12:49:05;;;;;;;8.48;4.68;;;19.00;52.70;;;;;;5115249;28;20023;-58
2021/10/10 12:51:31;;;;;;;6.35;4.13;;;19.00;52.70;;;;;;5096809;28;20020;-59
2021/10/10 12:54:17;;;;;;;7.63;4.22;;;19.00;52.80;;;;;;5115212;28;20028;-58
2021/10/10 12:57:07;;;;;;;9.10;4.30;;;19.00;52.80;;;;;;5115052;28;20031;-59